sensor_id;sensor_type;location;lat;lon;timestamp;temperature;humidity
50013;DHT22;35901;48.694;9.476;2023-09-19T00:02:17;15.80;99.90
50013;DHT22;35901;48.694;9.476;2023-09-19T00:04:43;15.80;99.90
50013;DHT22;35901;48.694;9.476;2023-09-19T00:07:09;15.80;99.90
50013;DHT22;35901;48.694;9.476;2023-09-19T00:09:34;15.80;99.90
50013;DHT22;35901;48.694;9.476;2023-09-19T00:12:05;15.80;99.90
50013;DHT22;35901;48.694;9.476;2023-09-19T00:14:31;15.80;99.90
50013;DHT22;35901;48.694;9.476;2023-09-19T00:17:00;15.80;99.90
50013;DHT22;35901;48.694;9.476;2023-09-19T00:19:26;15.80;99.90
50013;DHT22;35901;48.694;9.476;2023-09-19T00:21:52;15.70;99.90
50013;DHT22;35901;48.694;9.476;2023-09-19T00:24:18;15.70;99.90
50013;DHT22;35901;48.694;9.476;2023-09-19T00:26:44;15.80;99.90
50013;DHT22;35901;48.694;9.476;2023-09-19T00:29:12;15.80;99.90
50013;DHT22;35901;48.694;9.476;2023-09-19T00:31:43;15.80;99.90
50013;DHT22;35901;48.694;9.476;2023-09-19T00:34:09;15.80;99.90
50013;DHT22;35901;48.694;9.476;2023-09-19T00:36:39;15.80;99.90
50013;DHT22;35901;48.694;9.476;2023-09-19T00:39:06;15.80;99.90
50013;DHT22;35901;48.694;9.476;2023-09-19T00:41:35;15.80;99.90
50013;DHT22;35901;48.694;9.476;2023-09-19T00:44:03;15.90;99.90
50013;DHT22;35901;48.694;9.476;2023-09-19T00:46:31;15.80;99.90
50013;DHT22;35901;48.694;9.476;2023-09-19T00:48:58;15.80;99.90
50013;DHT22;35901;48.694;9.476;2023-09-19T00:51:25;15.80;99.90
50013;DHT22;35901;48.694;9.476;2023-09-19T00:53:53;15.80;99.90
50013;DHT22;35901;48.694;9.476;2023-09-19T00:56:19;15.70;99.90
50013;DHT22;35901;48.694;9.476;2023-09-19T00:58:46;15.70;99.90
50013;DHT22;35901;48.694;9.476;2023-09-19T01:01:13;15.70;99.90
50013;DHT22;35901;48.694;9.476;2023-09-19T01:03:41;15.60;99.90
50013;DHT22;35901;48.694;9.476;2023-09-19T01:06:07;15.60;99.90
50013;DHT22;35901;48.694;9.476;2023-09-19T01:08:34;15.50;99.90
50013;DHT22;35901;48.694;9.476;2023-09-19T01:11:25;15.60;99.90
50013;DHT22;35901;48.694;9.476;2023-09-19T01:14:02;15.60;99.90
50013;DHT22;35901;48.694;9.476;2023-09-19T01:16:40;15.70;99.90
50013;DHT22;35901;48.694;9.476;2023-09-19T01:19:35;15.70;99.90
50013;DHT22;35901;48.694;9.476;2023-09-19T01:22:41;15.70;99.90
50013;DHT22;35901;48.694;9.476;2023-09-19T01:30:57;15.90;99.90
50013;DHT22;35901;48.694;9.476;2023-09-19T01:33:24;15.90;99.90
50013;DHT22;35901;48.694;9.476;2023-09-19T01:35:50;15.80;99.90
50013;DHT22;35901;48.694;9.476;2023-09-19T01:38:16;15.80;99.90
50013;DHT22;35901;48.694;9.476;2023-09-19T01:40:57;15.80;99.90
50013;DHT22;35901;48.694;9.476;2023-09-19T01:43:36;15.80;99.90
50013;DHT22;35901;48.694;9.476;2023-09-19T01:46:15;15.80;99.90
50013;DHT22;35901;48.694;9.476;2023-09-19T01:52:02;15.80;99.90
50013;DHT22;35901;48.694;9.476;2023-09-19T01:54:41;15.80;99.90
50013;DHT22;35901;48.694;9.476;2023-09-19T01:57:16;15.70;99.90
50013;DHT22;35901;48.694;9.476;2023-09-19T01:59:50;15.70;99.90
50013;DHT22;35901;48.694;9.476;2023-09-19T02:02:21;15.70;99.90
50013;DHT22;35901;48.694;9.476;2023-09-19T02:04:48;15.60;99.90
50013;DHT22;35901;48.694;9.476;2023-09-19T02:07:14;15.70;99.90
50013;DHT22;35901;48.694;9.476;2023-09-19T02:09:40;15.60;99.90
50013;DHT22;35901;48.694;9.476;2023-09-19T02:12:11;15.70;99.90
50013;DHT22;35901;48.694;9.476;2023-09-19T02:14:39;15.70;99.90
50013;DHT22;35901;48.694;9.476;2023-09-19T02:17:05;15.70;99.90
50013;DHT22;35901;48.694;9.476;2023-09-19T02:19:36;15.70;99.90
50013;DHT22;35901;48.694;9.476;2023-09-19T02:22:04;15.80;99.90
50013;DHT22;35901;48.694;9.476;2023-09-19T02:24:36;15.80;99.90
50013;DHT22;35901;48.694;9.476;2023-09-19T02:27:04;15.80;99.90
50013;DHT22;35901;48.694;9.476;2023-09-19T02:29:31;15.80;99.90
50013;DHT22;35901;48.694;9.476;2023-09-19T02:31:57;15.80;99.90
50013;DHT22;35901;48.694;9.476;2023-09-19T02:34:24;15.80;99.90
50013;DHT22;35901;48.694;9.476;2023-09-19T02:36:51;15.80;99.90
50013;DHT22;35901;48.694;9.476;2023-09-19T02:39:19;15.80;99.90
50013;DHT22;35901;48.694;9.476;2023-09-19T02:41:44;15.70;99.90
50013;DHT22;35901;48.694;9.476;2023-09-19T02:44:10;15.70;99.90
50013;DHT22;35901;48.694;9.476;2023-09-19T02:46:36;15.70;99.90
50013;DHT22;35901;48.694;9.476;2023-09-19T02:49:03;15.70;99.90
50013;DHT22;35901;48.694;9.476;2023-09-19T02:51:32;15.60;99.90
50013;DHT22;35901;48.694;9.476;2023-09-19T02:54:01;15.60;99.90
50013;DHT22;35901;48.694;9.476;2023-09-19T02:56:29;15.50;99.90
50013;DHT22;35901;48.694;9.476;2023-09-19T02:58:56;15.50;99.90
50013;DHT22;35901;48.694;9.476;2023-09-19T03:01:23;15.40;99.90
50013;DHT22;35901;48.694;9.476;2023-09-19T03:03:49;15.30;99.90
50013;DHT22;35901;48.694;9.476;2023-09-19T03:06:16;15.30;99.90
50013;DHT22;35901;48.694;9.476;2023-09-19T03:08:43;15.20;99.90
50013;DHT22;35901;48.694;9.476;2023-09-19T03:11:10;15.10;99.90
50013;DHT22;35901;48.694;9.476;2023-09-19T03:13:39;15.00;99.90
50013;DHT22;35901;48.694;9.476;2023-09-19T03:16:05;15.00;99.90
50013;DHT22;35901;48.694;9.476;2023-09-19T03:18:34;15.00;99.90
50013;DHT22;35901;48.694;9.476;2023-09-19T03:21:00;15.00;99.90
50013;DHT22;35901;48.694;9.476;2023-09-19T03:23:27;15.00;99.90
50013;DHT22;35901;48.694;9.476;2023-09-19T03:25:56;15.10;99.90
50013;DHT22;35901;48.694;9.476;2023-09-19T03:28:24;15.10;99.90
50013;DHT22;35901;48.694;9.476;2023-09-19T03:31:05;15.20;99.90
50013;DHT22;35901;48.694;9.476;2023-09-19T03:33:33;15.30;99.90
50013;DHT22;35901;48.694;9.476;2023-09-19T03:36:01;15.30;99.90
50013;DHT22;35901;48.694;9.476;2023-09-19T03:38:30;15.30;99.90
50013;DHT22;35901;48.694;9.476;2023-09-19T03:40:57;15.30;99.90
50013;DHT22;35901;48.694;9.476;2023-09-19T03:43:22;15.40;99.90
50013;DHT22;35901;48.694;9.476;2023-09-19T03:45:48;15.40;99.90
50013;DHT22;35901;48.694;9.476;2023-09-19T03:48:14;15.40;99.90
50013;DHT22;35901;48.694;9.476;2023-09-19T03:50:41;15.40;99.90
50013;DHT22;35901;48.694;9.476;2023-09-19T03:53:09;15.40;99.90
50013;DHT22;35901;48.694;9.476;2023-09-19T03:55:35;15.30;99.90
50013;DHT22;35901;48.694;9.476;2023-09-19T03:58:01;15.30;99.90
50013;DHT22;35901;48.694;9.476;2023-09-19T04:00:27;15.30;99.90
50013;DHT22;35901;48.694;9.476;2023-09-19T04:02:54;15.30;99.90
50013;DHT22;35901;48.694;9.476;2023-09-19T04:05:22;15.30;99.90
50013;DHT22;35901;48.694;9.476;2023-09-19T04:07:48;15.30;99.90
50013;DHT22;35901;48.694;9.476;2023-09-19T04:10:13;15.30;99.90
50013;DHT22;35901;48.694;9.476;2023-09-19T04:12:40;15.30;99.90
50013;DHT22;35901;48.694;9.476;2023-09-19T04:15:06;15.30;99.90
50013;DHT22;35901;48.694;9.476;2023-09-19T04:17:32;15.30;99.90
50013;DHT22;35901;48.694;9.476;2023-09-19T04:20:00;15.20;99.90
50013;DHT22;35901;48.694;9.476;2023-09-19T04:22:26;15.20;99.90
50013;DHT22;35901;48.694;9.476;2023-09-19T04:24:52;15.10;99.90
50013;DHT22;35901;48.694;9.476;2023-09-19T04:27:17;15.10;99.90
50013;DHT22;35901;48.694;9.476;2023-09-19T04:29:44;15.00;99.90
50013;DHT22;35901;48.694;9.476;2023-09-19T04:32:10;15.00;99.90
50013;DHT22;35901;48.694;9.476;2023-09-19T04:34:36;14.90;99.90
50013;DHT22;35901;48.694;9.476;2023-09-19T04:37:03;14.90;99.90
50013;DHT22;35901;48.694;9.476;2023-09-19T04:39:29;14.90;99.90
50013;DHT22;35901;48.694;9.476;2023-09-19T04:41:55;14.90;99.90
50013;DHT22;35901;48.694;9.476;2023-09-19T04:44:21;14.90;99.90
50013;DHT22;35901;48.694;9.476;2023-09-19T04:46:47;14.90;99.90
50013;DHT22;35901;48.694;9.476;2023-09-19T04:49:13;14.90;99.90
50013;DHT22;35901;48.694;9.476;2023-09-19T04:51:39;14.90;99.90
50013;DHT22;35901;48.694;9.476;2023-09-19T04:54:05;14.90;99.90
50013;DHT22;35901;48.694;9.476;2023-09-19T04:56:32;15.00;99.90
50013;DHT22;35901;48.694;9.476;2023-09-19T04:58:58;15.00;99.90
50013;DHT22;35901;48.694;9.476;2023-09-19T05:01:24;14.90;99.90
50013;DHT22;35901;48.694;9.476;2023-09-19T05:03:50;14.90;99.90
50013;DHT22;35901;48.694;9.476;2023-09-19T05:06:19;14.90;99.90
50013;DHT22;35901;48.694;9.476;2023-09-19T05:08:49;14.90;99.90
50013;DHT22;35901;48.694;9.476;2023-09-19T05:11:21;15.00;99.90
50013;DHT22;35901;48.694;9.476;2023-09-19T05:13:51;15.00;99.90
50013;DHT22;35901;48.694;9.476;2023-09-19T05:16:18;15.00;99.90
50013;DHT22;35901;48.694;9.476;2023-09-19T05:18:43;15.00;99.90
50013;DHT22;35901;48.694;9.476;2023-09-19T05:21:09;15.10;99.90
50013;DHT22;35901;48.694;9.476;2023-09-19T05:23:34;15.10;99.90
50013;DHT22;35901;48.694;9.476;2023-09-19T05:26:00;15.30;99.90
50013;DHT22;35901;48.694;9.476;2023-09-19T05:28:26;15.40;99.90
50013;DHT22;35901;48.694;9.476;2023-09-19T05:30:52;15.50;99.90
50013;DHT22;35901;48.694;9.476;2023-09-19T05:33:19;15.60;99.90
50013;DHT22;35901;48.694;9.476;2023-09-19T05:35:45;15.80;99.90
50013;DHT22;35901;48.694;9.476;2023-09-19T05:38:14;15.70;99.90
50013;DHT22;35901;48.694;9.476;2023-09-19T05:40:45;15.60;99.90
50013;DHT22;35901;48.694;9.476;2023-09-19T05:43:10;15.40;99.90
50013;DHT22;35901;48.694;9.476;2023-09-19T05:45:36;15.20;99.90
50013;DHT22;35901;48.694;9.476;2023-09-19T05:48:13;15.10;99.90
50013;DHT22;35901;48.694;9.476;2023-09-19T05:50:41;15.10;99.90
50013;DHT22;35901;48.694;9.476;2023-09-19T05:53:06;15.00;99.90
50013;DHT22;35901;48.694;9.476;2023-09-19T05:55:33;14.90;99.90
50013;DHT22;35901;48.694;9.476;2023-09-19T05:57:58;14.80;99.90
50013;DHT22;35901;48.694;9.476;2023-09-19T06:00:25;14.70;99.90
50013;DHT22;35901;48.694;9.476;2023-09-19T06:02:59;14.70;99.90
50013;DHT22;35901;48.694;9.476;2023-09-19T06:05:26;14.70;99.90
50013;DHT22;35901;48.694;9.476;2023-09-19T06:07:52;14.70;99.90
50013;DHT22;35901;48.694;9.476;2023-09-19T06:10:19;14.70;99.90
50013;DHT22;35901;48.694;9.476;2023-09-19T06:12:46;14.70;99.90
50013;DHT22;35901;48.694;9.476;2023-09-19T06:15:13;14.70;99.90
50013;DHT22;35901;48.694;9.476;2023-09-19T06:17:48;14.80;99.90
50013;DHT22;35901;48.694;9.476;2023-09-19T06:20:14;14.80;99.90
50013;DHT22;35901;48.694;9.476;2023-09-19T06:22:42;14.90;99.90
50013;DHT22;35901;48.694;9.476;2023-09-19T06:25:09;14.90;99.90
50013;DHT22;35901;48.694;9.476;2023-09-19T06:27:40;15.00;99.90
50013;DHT22;35901;48.694;9.476;2023-09-19T06:30:10;15.10;99.90
50013;DHT22;35901;48.694;9.476;2023-09-19T06:32:37;15.20;99.90
50013;DHT22;35901;48.694;9.476;2023-09-19T06:35:03;15.30;99.90
50013;DHT22;35901;48.694;9.476;2023-09-19T06:37:29;15.30;99.90
50013;DHT22;35901;48.694;9.476;2023-09-19T06:39:55;15.20;99.90
50013;DHT22;35901;48.694;9.476;2023-09-19T06:42:21;15.20;99.90
50013;DHT22;35901;48.694;9.476;2023-09-19T06:44:48;15.10;99.90
50013;DHT22;35901;48.694;9.476;2023-09-19T06:47:14;15.10;99.90
50013;DHT22;35901;48.694;9.476;2023-09-19T06:49:42;15.10;99.90
50013;DHT22;35901;48.694;9.476;2023-09-19T06:52:11;15.00;99.90
50013;DHT22;35901;48.694;9.476;2023-09-19T06:54:37;14.90;99.90
50013;DHT22;35901;48.694;9.476;2023-09-19T06:57:03;14.80;99.90
50013;DHT22;35901;48.694;9.476;2023-09-19T06:59:29;14.70;99.90
50013;DHT22;35901;48.694;9.476;2023-09-19T07:01:54;14.60;99.90
50013;DHT22;35901;48.694;9.476;2023-09-19T07:04:20;14.60;99.90
50013;DHT22;35901;48.694;9.476;2023-09-19T07:06:52;14.60;99.90
50013;DHT22;35901;48.694;9.476;2023-09-19T07:09:17;14.60;99.90
50013;DHT22;35901;48.694;9.476;2023-09-19T07:11:47;14.60;99.90
50013;DHT22;35901;48.694;9.476;2023-09-19T07:14:16;14.70;99.90
50013;DHT22;35901;48.694;9.476;2023-09-19T07:16:41;14.90;99.90
50013;DHT22;35901;48.694;9.476;2023-09-19T07:19:10;15.10;99.90
50013;DHT22;35901;48.694;9.476;2023-09-19T07:21:35;15.30;99.90
50013;DHT22;35901;48.694;9.476;2023-09-19T07:24:01;15.60;99.90
50013;DHT22;35901;48.694;9.476;2023-09-19T07:26:30;15.90;99.90
50013;DHT22;35901;48.694;9.476;2023-09-19T07:28:56;16.20;99.90
50013;DHT22;35901;48.694;9.476;2023-09-19T07:31:23;16.70;99.90
50013;DHT22;35901;48.694;9.476;2023-09-19T07:33:50;17.30;99.90
50013;DHT22;35901;48.694;9.476;2023-09-19T07:36:17;17.50;99.90
50013;DHT22;35901;48.694;9.476;2023-09-19T07:38:42;17.60;99.90
50013;DHT22;35901;48.694;9.476;2023-09-19T07:41:08;17.70;99.90
50013;DHT22;35901;48.694;9.476;2023-09-19T07:43:35;17.60;99.90
50013;DHT22;35901;48.694;9.476;2023-09-19T07:46:08;17.30;99.90
50013;DHT22;35901;48.694;9.476;2023-09-19T07:48:38;17.00;99.90
50013;DHT22;35901;48.694;9.476;2023-09-19T07:51:08;16.80;99.90
50013;DHT22;35901;48.694;9.476;2023-09-19T07:53:37;16.70;99.90
50013;DHT22;35901;48.694;9.476;2023-09-19T07:56:07;16.60;99.90
50013;DHT22;35901;48.694;9.476;2023-09-19T07:58:34;16.60;99.90
50013;DHT22;35901;48.694;9.476;2023-09-19T08:01:08;16.70;99.90
50013;DHT22;35901;48.694;9.476;2023-09-19T08:03:34;16.70;99.90
50013;DHT22;35901;48.694;9.476;2023-09-19T08:06:00;16.80;99.90
50013;DHT22;35901;48.694;9.476;2023-09-19T08:08:27;17.00;99.90
50013;DHT22;35901;48.694;9.476;2023-09-19T08:10:56;17.20;99.90
50013;DHT22;35901;48.694;9.476;2023-09-19T08:13:25;17.20;99.90
50013;DHT22;35901;48.694;9.476;2023-09-19T08:15:52;17.40;99.90
50013;DHT22;35901;48.694;9.476;2023-09-19T08:18:20;17.70;99.90
50013;DHT22;35901;48.694;9.476;2023-09-19T08:20:50;18.10;99.90
50013;DHT22;35901;48.694;9.476;2023-09-19T08:23:16;18.50;99.90
50013;DHT22;35901;48.694;9.476;2023-09-19T08:25:43;18.60;99.90
50013;DHT22;35901;48.694;9.476;2023-09-19T08:28:09;18.50;99.90
50013;DHT22;35901;48.694;9.476;2023-09-19T08:30:37;18.30;99.90
50013;DHT22;35901;48.694;9.476;2023-09-19T08:33:06;18.10;99.90
50013;DHT22;35901;48.694;9.476;2023-09-19T08:35:32;17.90;99.90
50013;DHT22;35901;48.694;9.476;2023-09-19T08:37:57;17.80;99.90
50013;DHT22;35901;48.694;9.476;2023-09-19T08:40:26;17.80;99.90
50013;DHT22;35901;48.694;9.476;2023-09-19T08:42:55;17.70;99.90
50013;DHT22;35901;48.694;9.476;2023-09-19T08:45:25;17.80;99.90
50013;DHT22;35901;48.694;9.476;2023-09-19T08:48:23;18.00;99.90
50013;DHT22;35901;48.694;9.476;2023-09-19T08:53:51;18.20;99.90
50013;DHT22;35901;48.694;9.476;2023-09-19T08:56:18;18.30;99.90
50013;DHT22;35901;48.694;9.476;2023-09-19T08:58:51;18.40;99.90
50013;DHT22;35901;48.694;9.476;2023-09-19T09:01:19;18.40;99.90
50013;DHT22;35901;48.694;9.476;2023-09-19T09:03:54;18.40;99.90
50013;DHT22;35901;48.694;9.476;2023-09-19T09:06:21;18.20;99.90
50013;DHT22;35901;48.694;9.476;2023-09-19T09:08:50;18.10;99.90
50013;DHT22;35901;48.694;9.476;2023-09-19T09:11:16;18.00;99.90
50013;DHT22;35901;48.694;9.476;2023-09-19T09:13:47;18.20;99.90
50013;DHT22;35901;48.694;9.476;2023-09-19T09:16:14;18.40;99.90
50013;DHT22;35901;48.694;9.476;2023-09-19T09:18:43;18.80;99.90
50013;DHT22;35901;48.694;9.476;2023-09-19T09:21:10;19.10;99.90
50013;DHT22;35901;48.694;9.476;2023-09-19T09:23:35;19.30;99.90
50013;DHT22;35901;48.694;9.476;2023-09-19T09:26:01;19.30;99.90
50013;DHT22;35901;48.694;9.476;2023-09-19T09:28:32;19.40;99.90
50013;DHT22;35901;48.694;9.476;2023-09-19T09:30:59;19.60;99.90
50013;DHT22;35901;48.694;9.476;2023-09-19T09:33:26;20.00;99.90
50013;DHT22;35901;48.694;9.476;2023-09-19T09:35:57;20.60;99.90
50013;DHT22;35901;48.694;9.476;2023-09-19T09:38:30;20.70;99.90
50013;DHT22;35901;48.694;9.476;2023-09-19T09:41:09;20.80;99.90
50013;DHT22;35901;48.694;9.476;2023-09-19T09:43:37;20.90;99.90
50013;DHT22;35901;48.694;9.476;2023-09-19T09:46:15;20.60;99.90
50013;DHT22;35901;48.694;9.476;2023-09-19T09:48:48;20.60;99.90
50013;DHT22;35901;48.694;9.476;2023-09-19T09:51:43;20.40;99.90
50013;DHT22;35901;48.694;9.476;2023-09-19T09:54:18;20.40;99.90
50013;DHT22;35901;48.694;9.476;2023-09-19T09:57:01;20.40;99.90
50013;DHT22;35901;48.694;9.476;2023-09-19T09:59:55;20.40;99.90
50013;DHT22;35901;48.694;9.476;2023-09-19T10:02:35;20.50;99.90
50013;DHT22;35901;48.694;9.476;2023-09-19T10:05:16;20.90;99.90
50013;DHT22;35901;48.694;9.476;2023-09-19T10:07:42;21.50;99.90
50013;DHT22;35901;48.694;9.476;2023-09-19T10:10:38;22.00;99.90
50013;DHT22;35901;48.694;9.476;2023-09-19T10:13:08;22.40;99.90
50013;DHT22;35901;48.694;9.476;2023-09-19T10:15:39;22.50;99.90
50013;DHT22;35901;48.694;9.476;2023-09-19T10:18:11;22.80;99.90
50013;DHT22;35901;48.694;9.476;2023-09-19T10:20:43;23.00;99.90
50013;DHT22;35901;48.694;9.476;2023-09-19T10:23:11;23.10;99.90
50013;DHT22;35901;48.694;9.476;2023-09-19T10:25:42;23.30;99.90
50013;DHT22;35901;48.694;9.476;2023-09-19T10:28:09;23.40;99.90
50013;DHT22;35901;48.694;9.476;2023-09-19T10:30:50;23.10;99.90
50013;DHT22;35901;48.694;9.476;2023-09-19T10:33:18;23.00;99.90
50013;DHT22;35901;48.694;9.476;2023-09-19T10:35:48;22.60;99.00
50013;DHT22;35901;48.694;9.476;2023-09-19T10:38:17;22.50;99.10
50013;DHT22;35901;48.694;9.476;2023-09-19T10:40:44;22.30;99.90
50013;DHT22;35901;48.694;9.476;2023-09-19T10:43:16;22.40;99.90
50013;DHT22;35901;48.694;9.476;2023-09-19T10:45:47;22.60;99.90
50013;DHT22;35901;48.694;9.476;2023-09-19T10:48:18;22.80;99.60
50013;DHT22;35901;48.694;9.476;2023-09-19T10:51:01;22.70;98.30
50013;DHT22;35901;48.694;9.476;2023-09-19T10:56:25;21.50;98.90
50013;DHT22;35901;48.694;9.476;2023-09-19T10:59:09;21.80;99.50
50013;DHT22;35901;48.694;9.476;2023-09-19T11:01:55;21.80;99.60
50013;DHT22;35901;48.694;9.476;2023-09-19T11:04:30;21.80;98.30
50013;DHT22;35901;48.694;9.476;2023-09-19T11:07:15;22.00;99.90
50013;DHT22;35901;48.694;9.476;2023-09-19T11:09:54;22.40;98.90
50013;DHT22;35901;48.694;9.476;2023-09-19T11:14:55;23.40;98.10
50013;DHT22;35901;48.694;9.476;2023-09-19T11:30:42;24.70;94.20
50013;DHT22;35901;48.694;9.476;2023-09-19T11:33:25;24.40;94.20
50013;DHT22;35901;48.694;9.476;2023-09-19T11:36:15;23.80;94.20
50013;DHT22;35901;48.694;9.476;2023-09-19T11:43:53;23.50;94.70
50013;DHT22;35901;48.694;9.476;2023-09-19T11:46:24;23.40;95.20
50013;DHT22;35901;48.694;9.476;2023-09-19T11:48:51;23.70;94.60
50013;DHT22;35901;48.694;9.476;2023-09-19T11:51:21;23.60;94.70
50013;DHT22;35901;48.694;9.476;2023-09-19T11:53:53;23.40;95.30
50013;DHT22;35901;48.694;9.476;2023-09-19T11:56:22;23.10;95.30
50013;DHT22;35901;48.694;9.476;2023-09-19T11:58:50;23.00;95.80
50013;DHT22;35901;48.694;9.476;2023-09-19T12:01:29;23.40;95.90
50013;DHT22;35901;48.694;9.476;2023-09-19T12:03:56;24.00;96.00
50013;DHT22;35901;48.694;9.476;2023-09-19T12:06:24;24.30;95.10
50013;DHT22;35901;48.694;9.476;2023-09-19T12:08:51;24.60;94.20
50013;DHT22;35901;48.694;9.476;2023-09-19T12:11:19;24.80;93.00
50013;DHT22;35901;48.694;9.476;2023-09-19T12:13:47;24.80;93.20
50013;DHT22;35901;48.694;9.476;2023-09-19T12:16:19;24.80;93.10
50013;DHT22;35901;48.694;9.476;2023-09-19T12:18:48;24.80;93.70
50013;DHT22;35901;48.694;9.476;2023-09-19T12:21:25;24.70;92.80
50013;DHT22;35901;48.694;9.476;2023-09-19T12:23:59;24.20;92.40
50013;DHT22;35901;48.694;9.476;2023-09-19T12:26:43;23.50;93.20
50013;DHT22;35901;48.694;9.476;2023-09-19T12:29:21;23.10;93.90
50013;DHT22;35901;48.694;9.476;2023-09-19T12:31:57;22.60;94.50
50013;DHT22;35901;48.694;9.476;2023-09-19T12:34:28;22.20;95.50
50013;DHT22;35901;48.694;9.476;2023-09-19T12:37:11;22.50;96.10
50013;DHT22;35901;48.694;9.476;2023-09-19T12:40:05;23.00;96.60
50013;DHT22;35901;48.694;9.476;2023-09-19T12:42:48;23.50;95.30
50013;DHT22;35901;48.694;9.476;2023-09-19T12:45:15;23.60;94.80
50013;DHT22;35901;48.694;9.476;2023-09-19T12:48:21;23.70;95.00
50013;DHT22;35901;48.694;9.476;2023-09-19T12:53:34;23.50;94.70
50013;DHT22;35901;48.694;9.476;2023-09-19T12:56:03;23.20;94.20
50013;DHT22;35901;48.694;9.476;2023-09-19T12:58:34;22.80;94.70
50013;DHT22;35901;48.694;9.476;2023-09-19T13:01:00;22.30;95.30
50013;DHT22;35901;48.694;9.476;2023-09-19T13:03:27;22.00;96.10
50013;DHT22;35901;48.694;9.476;2023-09-19T13:06:02;21.80;96.50
50013;DHT22;35901;48.694;9.476;2023-09-19T13:08:31;21.70;97.10
50013;DHT22;35901;48.694;9.476;2023-09-19T13:11:14;21.70;97.30
50013;DHT22;35901;48.694;9.476;2023-09-19T13:13:45;21.60;97.20
50013;DHT22;35901;48.694;9.476;2023-09-19T13:20:25;22.20;97.40
50013;DHT22;35901;48.694;9.476;2023-09-19T13:23:42;22.60;97.40
50013;DHT22;35901;48.694;9.476;2023-09-19T13:26:58;22.60;96.80
50013;DHT22;35901;48.694;9.476;2023-09-19T13:30:15;22.90;97.10
50013;DHT22;35901;48.694;9.476;2023-09-19T13:33:30;23.30;96.30
50013;DHT22;35901;48.694;9.476;2023-09-19T13:36:47;23.50;94.40
50013;DHT22;35901;48.694;9.476;2023-09-19T13:40:02;23.60;93.80
50013;DHT22;35901;48.694;9.476;2023-09-19T13:43:18;23.50;93.50
50013;DHT22;35901;48.694;9.476;2023-09-19T13:46:35;22.90;94.20
50013;DHT22;35901;48.694;9.476;2023-09-19T13:49:51;23.00;94.80
50013;DHT22;35901;48.694;9.476;2023-09-19T13:53:08;23.60;93.90
50013;DHT22;35901;48.694;9.476;2023-09-19T13:56:24;23.60;93.90
50013;DHT22;35901;48.694;9.476;2023-09-19T14:03:28;23.50;93.20
50013;DHT22;35901;48.694;9.476;2023-09-19T14:05:54;23.30;93.50
50013;DHT22;35901;48.694;9.476;2023-09-19T14:08:20;22.90;94.30
50013;DHT22;35901;48.694;9.476;2023-09-19T14:10:45;23.10;94.70
50013;DHT22;35901;48.694;9.476;2023-09-19T14:13:11;23.40;94.50
50013;DHT22;35901;48.694;9.476;2023-09-19T14:15:38;23.30;94.20
50013;DHT22;35901;48.694;9.476;2023-09-19T14:18:04;23.20;94.30
50013;DHT22;35901;48.694;9.476;2023-09-19T14:20:30;23.40;93.90
50013;DHT22;35901;48.694;9.476;2023-09-19T14:22:57;23.50;93.60
50013;DHT22;35901;48.694;9.476;2023-09-19T14:25:25;23.70;93.50
50013;DHT22;35901;48.694;9.476;2023-09-19T14:27:50;23.90;92.90
50013;DHT22;35901;48.694;9.476;2023-09-19T14:30:17;24.10;92.40
50013;DHT22;35901;48.694;9.476;2023-09-19T14:32:42;24.20;92.50
50013;DHT22;35901;48.694;9.476;2023-09-19T14:35:08;24.40;92.30
50013;DHT22;35901;48.694;9.476;2023-09-19T14:37:40;24.30;91.10
50013;DHT22;35901;48.694;9.476;2023-09-19T14:40:06;24.40;90.00
50013;DHT22;35901;48.694;9.476;2023-09-19T14:42:35;24.40;89.00
50013;DHT22;35901;48.694;9.476;2023-09-19T14:45:03;24.10;88.60
50013;DHT22;35901;48.694;9.476;2023-09-19T14:47:30;23.80;89.20
50013;DHT22;35901;48.694;9.476;2023-09-19T14:49:57;23.50;91.00
50013;DHT22;35901;48.694;9.476;2023-09-19T14:52:23;23.50;90.40
50013;DHT22;35901;48.694;9.476;2023-09-19T14:54:52;23.60;90.30
50013;DHT22;35901;48.694;9.476;2023-09-19T14:57:18;23.70;90.10
50013;DHT22;35901;48.694;9.476;2023-09-19T14:59:44;23.70;89.50
50013;DHT22;35901;48.694;9.476;2023-09-19T15:02:10;23.60;88.90
50013;DHT22;35901;48.694;9.476;2023-09-19T15:04:35;23.60;89.00
50013;DHT22;35901;48.694;9.476;2023-09-19T15:07:01;23.80;89.30
50013;DHT22;35901;48.694;9.476;2023-09-19T15:09:28;23.80;89.00
50013;DHT22;35901;48.694;9.476;2023-09-19T15:11:54;23.70;87.80
50013;DHT22;35901;48.694;9.476;2023-09-19T15:14:21;23.60;87.40
50013;DHT22;35901;48.694;9.476;2023-09-19T15:16:48;23.50;87.70
50013;DHT22;35901;48.694;9.476;2023-09-19T15:19:14;23.50;88.20
50013;DHT22;35901;48.694;9.476;2023-09-19T15:21:41;23.50;88.40
50013;DHT22;35901;48.694;9.476;2023-09-19T15:24:07;23.60;88.80
50013;DHT22;35901;48.694;9.476;2023-09-19T15:26:36;23.50;88.00
50013;DHT22;35901;48.694;9.476;2023-09-19T15:29:06;23.40;88.40
50013;DHT22;35901;48.694;9.476;2023-09-19T15:31:32;23.40;87.40
50013;DHT22;35901;48.694;9.476;2023-09-19T15:33:58;23.30;87.40
50013;DHT22;35901;48.694;9.476;2023-09-19T15:36:24;23.20;87.50
50013;DHT22;35901;48.694;9.476;2023-09-19T15:41:29;23.40;86.70
50013;DHT22;35901;48.694;9.476;2023-09-19T15:43:56;23.30;86.50
50013;DHT22;35901;48.694;9.476;2023-09-19T15:46:22;23.20;86.20
50013;DHT22;35901;48.694;9.476;2023-09-19T15:48:48;23.10;86.50
50013;DHT22;35901;48.694;9.476;2023-09-19T15:51:14;23.00;86.50
50013;DHT22;35901;48.694;9.476;2023-09-19T15:53:45;22.80;86.70
50013;DHT22;35901;48.694;9.476;2023-09-19T15:56:11;22.70;86.70
50013;DHT22;35901;48.694;9.476;2023-09-19T15:58:38;22.80;87.20
50013;DHT22;35901;48.694;9.476;2023-09-19T16:01:10;22.80;87.80
50013;DHT22;35901;48.694;9.476;2023-09-19T16:03:42;22.90;88.20
50013;DHT22;35901;48.694;9.476;2023-09-19T16:06:09;22.90;88.40
50013;DHT22;35901;48.694;9.476;2023-09-19T16:08:42;22.70;87.40
50013;DHT22;35901;48.694;9.476;2023-09-19T16:11:09;22.60;87.80
50013;DHT22;35901;48.694;9.476;2023-09-19T16:13:36;22.60;88.70
50013;DHT22;35901;48.694;9.476;2023-09-19T16:16:02;22.50;88.90
50013;DHT22;35901;48.694;9.476;2023-09-19T16:18:27;22.20;89.70
50013;DHT22;35901;48.694;9.476;2023-09-19T16:20:53;22.10;90.20
50013;DHT22;35901;48.694;9.476;2023-09-19T16:23:19;22.20;90.60
50013;DHT22;35901;48.694;9.476;2023-09-19T16:25:46;22.30;90.70
50013;DHT22;35901;48.694;9.476;2023-09-19T16:28:12;22.40;90.70
50013;DHT22;35901;48.694;9.476;2023-09-19T16:30:38;22.30;90.60
50013;DHT22;35901;48.694;9.476;2023-09-19T16:33:04;22.10;90.60
50013;DHT22;35901;48.694;9.476;2023-09-19T16:35:30;22.00;90.70
50013;DHT22;35901;48.694;9.476;2023-09-19T16:37:55;21.70;90.90
50013;DHT22;35901;48.694;9.476;2023-09-19T16:40:21;21.50;91.20
50013;DHT22;35901;48.694;9.476;2023-09-19T16:42:46;21.30;91.40